MKJS 201600Z 06015KT 9999 FEW022 31/25 Q1014
MKJP 201600Z 15017KT 9999 FEW022CB 32/26 Q1014
MWCR 201600Z 14009KT 9999 SCT018 31/25 Q1015
MWCB 201600Z 10008KT 9999 FEW018 30/25 Q1015